createdAt,value
2018-12-20T00:02:01.036Z,-0.98
2018-12-20T00:04:31.793Z,-0.98
2018-12-20T00:07:02.205Z,-0.98
2018-12-20T00:09:32.378Z,-1.01
2018-12-20T00:12:02.512Z,-1.03
2018-12-20T00:14:54.971Z,-1.05
2018-12-20T00:17:30.387Z,-1.05
2018-12-20T00:20:00.416Z,-1.08
2018-12-20T00:22:30.598Z,-1.11
2018-12-20T00:25:00.651Z,-1.15
2018-12-20T00:27:30.854Z,-1.20
2018-12-20T00:30:01.186Z,-1.24
2018-12-20T00:32:31.232Z,-1.24
2018-12-20T00:35:01.489Z,-1.27
2018-12-20T00:37:31.872Z,-1.28
2018-12-20T00:40:06.379Z,-1.31
2018-12-20T00:42:34.264Z,-1.30
2018-12-20T00:45:05.226Z,-1.29
2018-12-20T00:47:35.515Z,-1.28
2018-12-20T00:50:06.253Z,-1.32
2018-12-20T00:52:36.338Z,-1.32
2018-12-20T00:55:06.404Z,-1.33
2018-12-20T00:57:36.450Z,-1.36
2018-12-20T01:00:10.128Z,-1.35
2018-12-20T01:02:40.552Z,-1.34
2018-12-20T01:05:11.227Z,-1.34
2018-12-20T01:07:41.517Z,-1.34
2018-12-20T01:10:11.808Z,-1.34
2018-12-20T01:12:42.091Z,-1.35
2018-12-20T01:15:12.257Z,-1.36
2018-12-20T01:17:42.354Z,-1.37
2018-12-20T01:20:12.909Z,-1.40
2018-12-20T01:22:43.317Z,-1.42
2018-12-20T01:25:13.610Z,-1.46
2018-12-20T01:27:43.959Z,-1.49
2018-12-20T01:30:14.281Z,-1.51
2018-12-20T01:32:45.580Z,-1.54
2018-12-20T01:35:15.831Z,-1.59
2018-12-20T01:37:46.397Z,-1.64
2018-12-20T01:40:16.661Z,-1.69
2018-12-20T01:42:47.082Z,-1.73
2018-12-20T01:45:17.262Z,-1.75
2018-12-20T01:47:47.564Z,-1.78
2018-12-20T01:50:17.718Z,-1.78
2018-12-20T01:52:48.706Z,-1.82
2018-12-20T01:55:19.710Z,-1.84
2018-12-20T01:57:50.113Z,-1.88
2018-12-20T02:00:20.405Z,-1.90
2018-12-20T02:02:50.650Z,-1.90
2018-12-20T02:05:20.964Z,-1.92
2018-12-20T02:07:51.446Z,-1.91
2018-12-20T02:10:21.637Z,-1.93
2018-12-20T02:12:51.755Z,-2.00
2018-12-20T02:15:21.847Z,-2.04
2018-12-20T02:17:52.090Z,-2.05
2018-12-20T02:20:24.083Z,-2.08
2018-12-20T02:22:54.388Z,-2.11
2018-12-20T02:25:24.676Z,-2.12
2018-12-20T02:27:55.217Z,-2.17
2018-12-20T02:30:25.468Z,-2.24
2018-12-20T02:32:55.699Z,-2.23
2018-12-20T02:35:26.270Z,-2.22
2018-12-20T02:37:56.708Z,-2.21
2018-12-20T02:40:27.044Z,-2.22
2018-12-20T02:42:57.687Z,-2.28
2018-12-20T02:45:27.818Z,-2.43
2018-12-20T02:47:58.753Z,-2.41
2018-12-20T02:50:29.491Z,-2.39
2018-12-20T02:52:59.756Z,-2.37
2018-12-20T02:55:30.005Z,-2.41
2018-12-20T02:58:00.684Z,-2.39
2018-12-20T03:00:30.846Z,-2.36
2018-12-20T03:03:00.861Z,-2.35
2018-12-20T03:05:30.913Z,-2.35
2018-12-20T03:08:01.167Z,-2.38
2018-12-20T03:10:31.239Z,-2.42
2018-12-20T03:13:01.643Z,-2.41
2018-12-20T03:15:31.733Z,-2.41
2018-12-20T03:18:01.944Z,-2.41
2018-12-20T03:20:35.099Z,-2.39
2018-12-20T03:23:07.004Z,-2.37
2018-12-20T03:25:37.377Z,-2.36
2018-12-20T03:28:08.041Z,-2.33
2018-12-20T03:30:38.788Z,-2.30
2018-12-20T03:33:10.627Z,-2.31
2018-12-20T03:35:40.866Z,-2.30
2018-12-20T03:38:11.085Z,-2.34
2018-12-20T03:40:41.677Z,-2.32
2018-12-20T03:43:12.270Z,-2.31
2018-12-20T03:45:42.692Z,-2.31
2018-12-20T03:48:12.857Z,-2.35
2018-12-20T03:50:42.889Z,-2.34
2018-12-20T03:53:12.999Z,-2.31
2018-12-20T03:55:44.402Z,-2.32
2018-12-20T03:58:14.532Z,-2.28
2018-12-20T04:00:44.637Z,-2.25
2018-12-20T04:03:15.860Z,-2.20
2018-12-20T04:14:47.435Z,-2.09
2018-12-20T04:17:17.633Z,-2.04
2018-12-20T04:19:47.766Z,-2.05
2018-12-20T04:22:17.933Z,-2.08
2018-12-20T04:24:48.139Z,-2.04
2018-12-20T04:27:18.304Z,-2.06
2018-12-20T04:29:48.491Z,-2.09
2018-12-20T04:32:22.536Z,-2.11
2018-12-20T04:34:52.565Z,-2.07
2018-12-20T04:37:22.713Z,-2.11
2018-12-20T04:39:53.110Z,-2.15
2018-12-20T04:42:23.320Z,-2.16
2018-12-20T04:44:53.425Z,-2.16
2018-12-20T04:47:23.805Z,-2.17
2018-12-20T04:49:54.090Z,-2.15
2018-12-20T04:52:24.238Z,-2.13
2018-12-20T04:54:54.312Z,-2.10
2018-12-20T04:57:24.794Z,-2.06
2018-12-20T04:59:55.081Z,-2.02
2018-12-20T05:02:26.263Z,-2.00
2018-12-20T05:04:57.834Z,-2.00
2018-12-20T05:07:28.822Z,-2.02
2018-12-20T05:09:59.349Z,-2.07
2018-12-20T05:12:29.692Z,-2.15
2018-12-20T05:14:59.983Z,-2.11
2018-12-20T05:17:30.358Z,-2.09
2018-12-20T05:20:00.463Z,-2.08
2018-12-20T05:22:30.710Z,-2.06
2018-12-20T05:25:00.981Z,-2.08
2018-12-20T05:27:31.328Z,-2.07
2018-12-20T05:30:01.405Z,-2.05
2018-12-20T05:32:31.538Z,-2.19
2018-12-20T05:35:02.208Z,-2.32
2018-12-20T05:37:32.665Z,-2.27
2018-12-20T05:40:03.027Z,-2.23
2018-12-20T05:42:33.394Z,-2.18
2018-12-20T05:45:03.928Z,-2.13
2018-12-20T05:47:34.192Z,-2.07
2018-12-20T05:50:04.887Z,-2.03
2018-12-20T05:52:35.040Z,-2.00
2018-12-20T05:55:05.613Z,-2.00
2018-12-20T05:57:35.749Z,-2.01
2018-12-20T06:00:06.973Z,-1.97
2018-12-20T06:02:37.016Z,-1.95
2018-12-20T06:05:07.423Z,-1.91
2018-12-20T06:07:37.785Z,-1.90
2018-12-20T06:10:08.090Z,-1.87
2018-12-20T06:12:38.297Z,-1.86
2018-12-20T06:15:08.672Z,-1.86
2018-12-20T06:17:38.718Z,-1.91
2018-12-20T06:20:09.757Z,-1.87
2018-12-20T06:22:40.320Z,-2.02
2018-12-20T06:25:10.992Z,-2.10
2018-12-20T06:27:45.407Z,-2.04
2018-12-20T06:30:33.834Z,-1.99
2018-12-20T06:33:19.973Z,-1.94
2018-12-20T06:36:06.653Z,-1.90
2018-12-20T06:38:51.936Z,-1.85
2018-12-20T06:41:37.955Z,-1.81
2018-12-20T06:44:30.338Z,-1.78
2018-12-20T06:47:18.554Z,-1.75
2018-12-20T06:50:03.704Z,-1.74
2018-12-20T06:52:50.051Z,-1.77
2018-12-20T06:55:35.645Z,-1.77
2018-12-20T06:58:27.070Z,-1.78
2018-12-20T07:01:12.577Z,-1.78
2018-12-20T07:04:00.152Z,-1.77
2018-12-20T07:06:48.997Z,-1.76
2018-12-20T07:09:38.103Z,-1.60
2018-12-20T07:12:25.823Z,-1.59
2018-12-20T07:18:09.943Z,-1.64
2018-12-20T07:20:52.937Z,-1.63
2018-12-20T07:23:37.703Z,-1.61
2018-12-20T07:26:24.227Z,-1.56
2018-12-20T07:29:08.831Z,-1.56
2018-12-20T07:31:48.066Z,-1.53
2018-12-20T07:34:22.449Z,-1.54
2018-12-20T07:36:53.361Z,-1.54
2018-12-20T07:39:23.639Z,-1.53
2018-12-20T07:41:53.745Z,-1.54
2018-12-20T07:44:23.773Z,-1.57
2018-12-20T07:46:53.861Z,-1.59
2018-12-20T07:49:24.041Z,-1.56
2018-12-20T07:51:54.100Z,-1.57
2018-12-20T07:54:24.706Z,-1.55
2018-12-20T07:56:55.184Z,-1.57
2018-12-20T07:59:25.303Z,-1.55
2018-12-20T08:01:55.857Z,-1.53
2018-12-20T08:04:26.020Z,-1.53
2018-12-20T08:06:56.076Z,-1.52
2018-12-20T08:09:26.072Z,-1.43
2018-12-20T08:11:56.143Z,-1.39
2018-12-20T08:14:26.366Z,-1.39
2018-12-20T08:16:56.380Z,-1.35
2018-12-20T08:19:26.413Z,-1.33
2018-12-20T08:21:56.805Z,-1.33
2018-12-20T08:24:26.847Z,-1.15
2018-12-20T08:26:57.000Z,-1.24
2018-12-20T08:29:27.211Z,-1.31
2018-12-20T08:31:57.237Z,-1.21
2018-12-20T08:34:28.225Z,-1.32
2018-12-20T08:36:58.425Z,-1.25
2018-12-20T08:39:28.483Z,-1.24
2018-12-20T08:41:58.486Z,-1.26
2018-12-20T08:44:28.671Z,-1.23
2018-12-20T08:46:59.179Z,-1.16
2018-12-20T08:49:30.169Z,-1.14
2018-12-20T08:52:00.194Z,-1.09
2018-12-20T08:54:30.213Z,-1.06
2018-12-20T08:57:00.403Z,-1.13
2018-12-20T08:59:30.552Z,-1.09
2018-12-20T09:02:01.508Z,-1.07
2018-12-20T09:04:33.089Z,-1.02
2018-12-20T09:07:03.449Z,-1.03
2018-12-20T09:09:33.792Z,-1.04
2018-12-20T09:12:03.802Z,-0.99
2018-12-20T09:14:33.926Z,-1.01
2018-12-20T09:17:03.960Z,-0.94
2018-12-20T09:19:33.994Z,-0.92
2018-12-20T09:22:04.039Z,-0.81
2018-12-20T09:24:34.610Z,-0.81
2018-12-20T09:27:04.815Z,-0.78
2018-12-20T09:29:34.859Z,-0.80
2018-12-20T09:32:04.912Z,-0.71
2018-12-20T09:34:35.058Z,-0.72
2018-12-20T09:37:05.360Z,-0.65
2018-12-20T09:39:35.390Z,-0.73
2018-12-20T09:42:05.499Z,-0.77
2018-12-20T09:44:35.632Z,-0.63
2018-12-20T09:47:11.779Z,-0.69
2018-12-20T09:49:42.358Z,-0.62
2018-12-20T09:52:12.469Z,-0.58
2018-12-20T09:54:42.638Z,-0.45
2018-12-20T09:57:12.677Z,-0.44
2018-12-20T09:59:42.805Z,-0.51
2018-12-20T10:02:12.813Z,-0.50
2018-12-20T10:04:42.941Z,-0.46
2018-12-20T10:07:12.956Z,-0.46
2018-12-20T10:09:43.137Z,-0.36
2018-12-20T10:12:13.199Z,-0.24
2018-12-20T10:14:43.494Z,-0.23
2018-12-20T10:17:19.811Z,-0.06
2018-12-20T10:19:45.971Z,-0.03
2018-12-20T10:22:16.025Z,-0.03
2018-12-20T10:24:46.085Z,-0.04
2018-12-20T10:27:16.140Z,0.05
2018-12-20T10:29:46.709Z,0.08
2018-12-20T10:32:16.817Z,0.13
2018-12-20T10:34:46.964Z,0.12
2018-12-20T10:37:17.078Z,0.23
2018-12-20T10:39:47.184Z,0.24
2018-12-20T10:42:17.285Z,0.33
2018-12-20T10:44:47.741Z,0.34
2018-12-20T10:47:29.257Z,0.37
2018-12-20T10:49:58.084Z,0.41
2018-12-20T10:52:28.121Z,0.45
2018-12-20T10:54:58.253Z,0.61
2018-12-20T10:57:28.272Z,0.53
2018-12-20T10:59:58.338Z,0.62
2018-12-20T11:02:34.762Z,0.52
2018-12-20T11:05:11.189Z,0.56
2018-12-20T11:07:46.562Z,0.58
2018-12-20T11:10:25.176Z,0.54
2018-12-20T11:15:56.991Z,0.60
2018-12-20T11:18:27.040Z,0.66
2018-12-20T11:20:57.203Z,0.60
2018-12-20T11:23:27.525Z,0.68
2018-12-20T11:25:57.529Z,0.86
2018-12-20T11:28:28.249Z,0.96
2018-12-20T11:30:58.315Z,1.19
2018-12-20T11:33:28.393Z,1.34
2018-12-20T11:35:58.534Z,1.60
2018-12-20T11:38:28.662Z,1.65
2018-12-20T11:40:58.673Z,1.79
2018-12-20T11:43:28.673Z,1.93
2018-12-20T11:45:58.737Z,1.97
2018-12-20T11:48:28.810Z,2.11
2018-12-20T11:50:58.826Z,2.21
2018-12-20T11:53:28.941Z,2.37
2018-12-20T11:55:58.983Z,2.10
2018-12-20T11:58:29.225Z,2.15
2018-12-20T12:00:59.363Z,2.16
2018-12-20T12:03:29.489Z,2.40
2018-12-20T12:05:59.614Z,2.25
2018-12-20T12:08:29.621Z,2.44
2018-12-20T12:10:59.708Z,2.62
2018-12-20T12:13:29.753Z,2.87
2018-12-20T12:15:59.813Z,3.20
2018-12-20T12:18:29.951Z,3.56
2018-12-20T12:21:00.151Z,3.84
2018-12-20T12:23:30.201Z,3.99
2018-12-20T12:26:00.293Z,4.11
2018-12-20T12:28:30.880Z,4.37
2018-12-20T12:31:01.031Z,4.40
2018-12-20T12:33:31.134Z,4.28
2018-12-20T12:36:01.188Z,4.17
2018-12-20T12:38:31.589Z,3.98
2018-12-20T12:41:01.675Z,3.88
2018-12-20T12:43:31.738Z,3.79
2018-12-20T12:46:01.785Z,3.70
2018-12-20T12:48:31.897Z,3.67
2018-12-20T12:51:02.088Z,3.63
2018-12-20T12:53:32.164Z,3.50
2018-12-20T12:56:02.215Z,3.55
2018-12-20T12:58:32.661Z,3.53
2018-12-20T13:01:02.694Z,3.44
2018-12-20T13:03:32.982Z,3.39
2018-12-20T13:06:03.250Z,3.31
2018-12-20T13:08:33.360Z,3.26
2018-12-20T13:11:03.669Z,3.31
2018-12-20T13:13:34.089Z,3.29
2018-12-20T13:16:04.221Z,3.21
2018-12-20T13:18:34.270Z,3.16
2018-12-20T13:21:04.540Z,3.11
2018-12-20T13:23:35.010Z,2.96
2018-12-20T13:26:05.246Z,2.98
2018-12-20T13:28:35.704Z,2.95
2018-12-20T13:31:06.006Z,2.97
2018-12-20T13:33:36.177Z,2.93
2018-12-20T13:36:06.304Z,2.88
2018-12-20T13:38:36.378Z,2.84
2018-12-20T13:41:06.460Z,2.88
2018-12-20T13:43:36.582Z,2.93
2018-12-20T13:46:06.653Z,2.92
2018-12-20T13:48:37.265Z,2.94
2018-12-20T13:51:07.359Z,2.97
2018-12-20T13:53:37.429Z,2.95
2018-12-20T13:59:08.424Z,3.00
2018-12-20T14:01:42.709Z,2.94
2018-12-20T14:04:25.064Z,2.94
2018-12-20T14:06:55.203Z,2.88
2018-12-20T14:09:25.714Z,2.91
2018-12-20T14:11:55.837Z,2.85
2018-12-20T14:14:25.888Z,2.85
2018-12-20T14:16:55.922Z,2.91
2018-12-20T14:19:26.021Z,2.84
2018-12-20T14:21:56.207Z,2.76
2018-12-20T14:24:26.215Z,2.73
2018-12-20T14:26:56.267Z,2.69
2018-12-20T14:29:26.377Z,2.63
2018-12-20T14:31:56.721Z,2.63
2018-12-20T14:34:26.737Z,2.66
2018-12-20T14:36:56.903Z,2.54
2018-12-20T14:39:26.961Z,2.61
2018-12-20T14:41:57.194Z,2.54
2018-12-20T14:44:27.666Z,2.49
2018-12-20T14:46:57.727Z,2.36
2018-12-20T14:49:27.966Z,2.43
2018-12-20T14:51:58.089Z,2.39
2018-12-20T14:54:28.141Z,2.35
2018-12-20T14:56:58.238Z,2.32
2018-12-20T14:59:28.269Z,2.34
2018-12-20T15:01:59.308Z,2.31
2018-12-20T15:04:32.215Z,2.30
2018-12-20T15:07:02.262Z,2.25
2018-12-20T15:09:32.369Z,2.21
2018-12-20T15:12:03.475Z,2.15
2018-12-20T15:14:33.787Z,2.12
2018-12-20T15:17:03.828Z,2.12
2018-12-20T15:19:33.909Z,2.07
2018-12-20T15:22:04.012Z,2.03
2018-12-20T15:24:34.164Z,1.95
2018-12-20T15:27:04.283Z,1.91
2018-12-20T15:29:35.559Z,1.90
2018-12-20T15:32:05.584Z,1.89
2018-12-20T15:34:35.984Z,1.85
2018-12-20T15:37:06.436Z,1.83
2018-12-20T15:39:36.823Z,1.81
2018-12-20T15:42:06.912Z,1.81
2018-12-20T15:44:37.021Z,1.79
2018-12-20T15:47:07.074Z,1.76
2018-12-20T15:49:41.913Z,1.74
2018-12-20T15:52:09.544Z,1.73
2018-12-20T15:54:40.870Z,1.72
2018-12-20T15:57:11.125Z,1.72
2018-12-20T16:02:42.783Z,1.72
2018-12-20T16:05:12.931Z,1.69
2018-12-20T16:07:43.085Z,1.67
2018-12-20T16:10:13.274Z,1.64
2018-12-20T16:12:43.665Z,1.60
2018-12-20T16:15:13.757Z,1.57
2018-12-20T16:17:43.790Z,1.55
2018-12-20T16:20:13.865Z,1.55
2018-12-20T16:22:44.088Z,1.52
2018-12-20T16:25:14.254Z,1.49
2018-12-20T16:27:44.349Z,1.50
2018-12-20T16:30:14.405Z,1.47
2018-12-20T16:32:44.454Z,1.42
2018-12-20T16:35:14.518Z,1.41
2018-12-20T16:40:44.541Z,1.37
2018-12-20T16:43:14.658Z,1.41
2018-12-20T16:45:44.783Z,1.37
2018-12-20T16:48:17.277Z,1.35
2018-12-20T16:50:47.537Z,1.32
2018-12-20T16:53:17.742Z,1.34
2018-12-20T16:55:50.241Z,1.27
2018-12-20T16:58:20.125Z,1.25
2018-12-20T17:00:50.222Z,1.21
2018-12-20T17:03:20.979Z,1.19
2018-12-20T17:05:53.492Z,1.19
2018-12-20T17:08:23.574Z,1.18
2018-12-20T17:10:53.660Z,1.14
2018-12-20T17:13:23.809Z,1.14
2018-12-20T17:15:53.933Z,1.17
2018-12-20T17:21:24.592Z,1.15
2018-12-20T17:23:54.674Z,1.12
2018-12-20T17:26:24.978Z,1.07
2018-12-20T17:28:55.103Z,1.05
2018-12-20T17:31:25.184Z,1.00
2018-12-20T17:33:55.245Z,1.07
2018-12-20T17:36:25.276Z,1.06
2018-12-20T17:38:56.457Z,1.01
2018-12-20T17:41:26.548Z,0.97
2018-12-20T17:43:56.832Z,0.96
2018-12-20T17:46:27.009Z,0.92
2018-12-20T17:48:57.098Z,0.87
2018-12-20T17:51:27.157Z,0.87
2018-12-20T17:53:57.262Z,0.87
2018-12-20T17:56:27.335Z,0.87
2018-12-20T17:58:57.369Z,0.86
2018-12-20T18:01:27.559Z,0.81
2018-12-20T18:03:57.645Z,0.80
2018-12-20T18:06:27.753Z,0.78
2018-12-20T18:08:57.840Z,0.76
2018-12-20T18:11:27.918Z,0.73
2018-12-20T18:13:57.985Z,0.72
2018-12-20T18:16:28.241Z,0.67
2018-12-20T18:18:58.348Z,0.61
2018-12-20T18:21:28.407Z,0.64
2018-12-20T18:23:58.504Z,0.60
2018-12-20T18:26:29.372Z,0.59
2018-12-20T18:28:59.433Z,0.56
2018-12-20T18:31:29.469Z,0.55
2018-12-20T18:33:59.590Z,0.53
2018-12-20T18:36:29.708Z,0.55
2018-12-20T18:38:59.728Z,0.48
2018-12-20T18:41:29.789Z,0.45
2018-12-20T18:44:00.757Z,0.45
2018-12-20T18:46:31.257Z,0.36
2018-12-20T18:49:01.329Z,0.36
2018-12-20T18:51:31.495Z,0.34
2018-12-20T18:54:01.569Z,0.34
2018-12-20T18:56:31.638Z,0.32
2018-12-20T18:59:01.682Z,0.34
2018-12-20T19:01:32.094Z,0.33
2018-12-20T19:04:02.364Z,0.30
2018-12-20T19:06:32.703Z,0.27
2018-12-20T19:09:02.916Z,0.22
2018-12-20T19:11:32.976Z,0.21
2018-12-20T19:14:03.004Z,0.14
2018-12-20T19:16:33.051Z,0.16
2018-12-20T19:19:03.242Z,0.16
2018-12-20T19:21:33.288Z,0.10
2018-12-20T19:24:04.496Z,0.09
2018-12-20T19:26:34.760Z,0.11
2018-12-20T19:29:04.925Z,0.11
2018-12-20T19:31:35.029Z,0.11
2018-12-20T19:34:05.042Z,0.09
2018-12-20T19:36:35.469Z,0.06
2018-12-20T19:39:12.211Z,0.06
2018-12-20T19:41:42.428Z,0.05
2018-12-20T19:44:12.606Z,0.05
2018-12-20T19:46:48.805Z,0.00
2018-12-20T19:49:18.970Z,-0.10
2018-12-20T19:51:49.032Z,-0.19
2018-12-20T19:54:19.213Z,-0.20
2018-12-20T19:56:49.408Z,-0.18
2018-12-20T19:59:19.686Z,-0.15
2018-12-20T20:01:50.164Z,-0.12
2018-12-20T20:04:20.324Z,-0.11
2018-12-20T20:06:50.449Z,-0.12
2018-12-20T20:09:20.664Z,-0.13
2018-12-20T20:11:50.668Z,-0.12
2018-12-20T20:14:20.916Z,-0.18
2018-12-20T20:16:51.202Z,-0.22
2018-12-20T20:19:21.738Z,-0.24
2018-12-20T20:21:51.927Z,-0.32
2018-12-20T20:24:21.986Z,-0.40
2018-12-20T20:26:51.997Z,-0.38
2018-12-20T20:29:22.024Z,-0.34
2018-12-20T20:31:52.170Z,-0.33
2018-12-20T20:34:23.099Z,-0.32
2018-12-20T20:36:53.499Z,-0.37
2018-12-20T20:39:23.926Z,-0.31
2018-12-20T20:41:54.301Z,-0.30
2018-12-20T20:44:24.346Z,-0.33
2018-12-20T20:46:55.572Z,-0.26
2018-12-20T20:49:25.591Z,-0.30
2018-12-20T20:51:55.998Z,-0.33
2018-12-20T20:54:26.019Z,-0.26
2018-12-20T20:56:56.050Z,-0.28
2018-12-20T20:59:50.796Z,-0.33
2018-12-20T21:02:19.756Z,-0.34
2018-12-20T21:04:51.011Z,-0.37
2018-12-20T21:07:21.257Z,-0.37
2018-12-20T21:09:51.520Z,-0.35
2018-12-20T21:12:22.979Z,-0.36
2018-12-20T21:14:53.722Z,-0.24
2018-12-20T21:17:23.766Z,-0.32
2018-12-20T21:19:53.994Z,-0.31
2018-12-20T21:22:24.006Z,-0.28
2018-12-20T21:24:54.050Z,-0.20
2018-12-20T21:27:24.406Z,-0.25
2018-12-20T21:29:54.471Z,-0.20
2018-12-20T21:32:24.805Z,-0.20
2018-12-20T21:34:55.065Z,-0.20
2018-12-20T21:37:25.080Z,-0.20
2018-12-20T21:39:55.538Z,-0.11
2018-12-20T21:42:25.721Z,-0.17
2018-12-20T21:44:55.857Z,-0.22
2018-12-20T21:47:26.213Z,-0.26
2018-12-20T21:49:56.675Z,-0.27
2018-12-20T21:52:26.718Z,-0.32
2018-12-20T21:54:56.879Z,-0.23
2018-12-20T21:57:26.928Z,-0.20
2018-12-20T22:00:01.218Z,-0.26
2018-12-20T22:02:29.444Z,-0.23
2018-12-20T22:11:00.594Z,-0.39
2018-12-20T22:13:30.912Z,-0.45
2018-12-20T22:16:01.089Z,-0.46
2018-12-20T22:18:31.102Z,-0.46
2018-12-20T22:21:01.341Z,-0.51
2018-12-20T22:23:31.412Z,-0.27
2018-12-20T22:26:01.534Z,-0.31
2018-12-20T22:28:31.564Z,-0.38
2018-12-20T22:31:01.624Z,-0.45
2018-12-20T22:33:31.732Z,-0.45
2018-12-20T22:36:01.911Z,-0.45
2018-12-20T22:38:31.952Z,-0.54
2018-12-20T22:47:12.461Z,-0.66
2018-12-20T22:49:42.494Z,-0.64
2018-12-20T22:52:12.570Z,-0.64
2018-12-20T22:54:42.585Z,-0.54
2018-12-20T22:57:12.703Z,-0.46
2018-12-20T22:59:42.861Z,-0.26
2018-12-20T23:02:17.997Z,-0.22
2018-12-20T23:04:46.981Z,-0.25
2018-12-20T23:07:17.020Z,-0.12
2018-12-20T23:09:47.187Z,-0.13
2018-12-20T23:12:18.113Z,-0.08
2018-12-20T23:14:48.380Z,-0.08
2018-12-20T23:17:18.560Z,0.10
2018-12-20T23:19:48.955Z,0.18
2018-12-20T23:22:19.004Z,0.23
2018-12-20T23:24:49.369Z,0.32
2018-12-20T23:27:19.589Z,0.41
2018-12-20T23:29:49.609Z,0.50
2018-12-20T23:32:20.010Z,0.54
2018-12-20T23:34:50.045Z,0.57
2018-12-20T23:37:20.275Z,0.54
2018-12-20T23:39:50.473Z,0.59
2018-12-20T23:42:20.699Z,0.64
2018-12-20T23:44:50.711Z,0.69
2018-12-20T23:47:20.737Z,0.67
2018-12-20T23:49:50.841Z,0.68
2018-12-20T23:52:20.851Z,0.68
2018-12-20T23:54:50.883Z,0.70
2018-12-20T23:57:20.889Z,0.61
2018-12-20T23:59:51.039Z,0.57
